Terminal Aerodrome Forecast
Issued by NWS El Paso, TX

Home | Current Version | Previous Version | Text Only | Print | Product List | Glossary On
Versions: 1 2 3 4 5 6 7 8 9 10 11 12 13 14 15 16
000
FTUS44 KEPZ 170100 AAA
TAFELP
TAF AMD
KELP 170139Z 1702/1724 04010KT P6SM VCSH FEW015 BKN045 BKN070
     FM170400 05010KT 5SM -SHRA SCT005 BKN025 OVC040
      TEMPO 1704/1708 2SM +SHRA BKN008
     FM171100 04007KT P6SM VCSH SCT005 BKN025
     FM172000 08008KT 6SM -SHRA SCT020 BKN040 OVC060=

USA.gov is the U.S. government's official web portal to all federal, state and local government web resources and services.